createdAt,value
2022-09-01T00:00:41.985Z,2.15
2022-09-01T00:03:10.927Z,2.70
2022-09-01T00:05:37.228Z,2.50
2022-09-01T00:08:04.718Z,2.55
2022-09-01T00:10:31.040Z,2.20
2022-09-01T00:12:57.427Z,2.35
2022-09-01T00:15:23.770Z,2.67
2022-09-01T00:17:50.082Z,2.50
2022-09-01T00:20:20.297Z,2.60
2022-09-01T00:22:47.444Z,2.40
2022-09-01T00:25:13.717Z,2.35
2022-09-01T00:27:40.036Z,2.63
2022-09-01T00:30:06.879Z,2.65
2022-09-01T00:32:33.195Z,2.50
2022-09-01T00:34:59.670Z,2.50
2022-09-01T00:37:25.951Z,2.47
2022-09-01T00:39:52.173Z,2.38
2022-09-01T00:42:18.450Z,2.47
2022-09-01T00:44:44.688Z,2.35
2022-09-01T00:47:13.464Z,2.40
2022-09-01T00:49:42.057Z,2.50
2022-09-01T00:52:10.873Z,2.38
2022-09-01T00:54:39.886Z,2.60
2022-09-01T00:57:07.907Z,2.53
2022-09-01T00:59:35.818Z,2.50
2022-09-01T01:02:02.082Z,2.30
2022-09-01T01:04:30.151Z,2.42
2022-09-01T01:07:02.736Z,2.35
2022-09-01T01:09:31.658Z,2.33
2022-09-01T01:12:00.085Z,2.45
2022-09-01T01:14:28.966Z,2.40
2022-09-01T01:16:55.305Z,2.55
2022-09-01T01:19:54.146Z,2.40
2022-09-01T01:22:43.668Z,2.28
2022-09-01T01:25:12.667Z,2.33
2022-09-01T01:27:43.199Z,2.50
2022-09-01T01:30:11.063Z,2.37
2022-09-01T01:32:42.988Z,2.30
2022-09-01T01:35:14.698Z,2.60
2022-09-01T01:37:46.439Z,2.28
2022-09-01T01:40:15.620Z,2.30
2022-09-01T01:42:44.128Z,2.50
2022-09-01T01:45:12.812Z,2.33
2022-09-01T01:47:39.305Z,2.75
2022-09-01T01:50:09.194Z,2.30
2022-09-01T01:52:35.890Z,2.35
2022-09-01T01:55:09.855Z,2.20
2022-09-01T01:57:37.457Z,2.05
2022-09-01T02:00:04.547Z,2.47
2022-09-01T02:02:31.573Z,2.50
2022-09-01T02:04:58.444Z,2.53
2022-09-01T02:07:24.672Z,2.25
2022-09-01T02:09:50.916Z,2.47
2022-09-01T02:12:21.182Z,2.80
2022-09-01T02:14:48.495Z,2.13
2022-09-01T02:17:14.820Z,2.30
2022-09-01T02:19:43.103Z,2.30
2022-09-01T02:22:10.913Z,2.17
2022-09-01T02:24:37.598Z,2.33
2022-09-01T02:27:05.526Z,2.08
2022-09-01T02:29:33.281Z,2.20
2022-09-01T02:32:06.411Z,2.10
2022-09-01T02:34:34.538Z,2.50
2022-09-01T02:37:00.948Z,2.03
2022-09-01T02:39:28.230Z,2.47
2022-09-01T02:41:54.830Z,2.45
2022-09-01T02:44:22.083Z,2.25
2022-09-01T02:46:50.108Z,2.00
2022-09-01T02:49:19.724Z,2.38
2022-09-01T02:51:48.197Z,2.13
2022-09-01T02:54:17.132Z,1.98
2022-09-01T02:56:47.991Z,2.00
2022-09-01T02:59:15.198Z,2.10
2022-09-01T03:01:41.994Z,2.53
2022-09-01T03:04:09.644Z,2.35
2022-09-01T03:06:37.812Z,2.15
2022-09-01T03:09:06.101Z,2.00
2022-09-01T03:11:34.867Z,2.17
2022-09-01T03:14:01.159Z,2.47
2022-09-01T03:16:27.676Z,2.40
2022-09-01T03:18:53.961Z,1.92
2022-09-01T03:21:20.732Z,2.30
2022-09-01T03:23:47.483Z,2.00
2022-09-01T03:26:14.411Z,2.05
2022-09-01T03:28:40.994Z,2.10
2022-09-01T03:31:07.321Z,2.20
2022-09-01T03:33:34.329Z,2.20
2022-09-01T03:36:00.678Z,2.30
2022-09-01T03:38:27.152Z,2.10
2022-09-01T03:41:01.754Z,2.28
2022-09-01T03:43:35.272Z,2.28
2022-09-01T03:46:02.620Z,2.42
2022-09-01T03:48:29.582Z,2.40
2022-09-01T03:51:00.275Z,2.15
2022-09-01T03:53:27.550Z,2.23
2022-09-01T03:55:54.888Z,2.22
2022-09-01T03:58:21.455Z,2.20
2022-09-01T04:00:49.894Z,2.20
2022-09-01T04:03:21.732Z,2.08
2022-09-01T04:05:55.884Z,1.90
2022-09-01T04:08:32.652Z,2.30
2022-09-01T04:11:00.902Z,2.20
2022-09-01T04:13:32.078Z,2.63
2022-09-01T04:15:58.823Z,2.33
2022-09-01T04:18:25.420Z,2.00
2022-09-01T04:20:53.782Z,2.13
2022-09-01T04:23:26.822Z,2.00
2022-09-01T04:25:55.334Z,2.15
2022-09-01T04:28:24.814Z,2.30
2022-09-01T04:30:53.583Z,2.20
2022-09-01T04:33:19.882Z,2.08
2022-09-01T04:35:46.132Z,2.20
2022-09-01T04:38:15.474Z,2.25
2022-09-01T04:40:42.224Z,2.10
2022-09-01T04:43:09.220Z,2.30
2022-09-01T04:45:36.564Z,2.35
2022-09-01T04:48:04.017Z,2.20
2022-09-01T04:50:30.817Z,2.33
2022-09-01T04:53:02.961Z,2.30
2022-09-01T04:55:29.969Z,2.55
2022-09-01T04:57:57.521Z,2.20
2022-09-01T05:00:24.648Z,2.88
2022-09-01T05:02:55.275Z,2.72
2022-09-01T05:05:22.528Z,2.75
2022-09-01T05:07:54.425Z,2.67
2022-09-01T05:10:21.433Z,2.25
2022-09-01T05:12:48.245Z,2.33
2022-09-01T05:15:14.760Z,2.85
2022-09-01T05:17:41.340Z,3.00
2022-09-01T05:20:07.948Z,2.80
2022-09-01T05:22:35.523Z,2.38
2022-09-01T05:25:13.218Z,2.97
2022-09-01T05:27:40.525Z,2.50
2022-09-01T05:30:08.537Z,3.00
2022-09-01T05:32:37.092Z,2.33
2022-09-01T05:35:06.752Z,2.53
2022-09-01T05:37:33.753Z,2.40
2022-09-01T05:40:01.090Z,2.30
2022-09-01T05:42:28.803Z,2.38
2022-09-01T05:44:55.973Z,2.20
2022-09-01T05:47:23.024Z,2.22
2022-09-01T05:49:50.102Z,2.33
2022-09-01T05:52:16.378Z,2.63
2022-09-01T05:54:42.656Z,2.17
2022-09-01T05:57:32.737Z,2.08
2022-09-01T05:59:55.192Z,2.15
2022-09-01T06:02:22.187Z,2.25
2022-09-01T06:04:48.934Z,2.00
2022-09-01T06:07:17.478Z,2.10
2022-09-01T06:09:45.460Z,2.15
2022-09-01T06:12:17.345Z,1.90
2022-09-01T06:14:44.861Z,1.80
2022-09-01T06:17:11.667Z,1.80
2022-09-01T06:19:39.938Z,2.17
2022-09-01T06:22:06.245Z,1.80
2022-09-01T06:24:32.559Z,2.20
2022-09-01T06:26:59.614Z,1.80
2022-09-01T06:29:25.844Z,1.55
2022-09-01T06:31:52.837Z,1.60
2022-09-01T06:34:19.568Z,1.50
2022-09-01T06:36:47.754Z,1.40
2022-09-01T06:39:19.566Z,1.60
2022-09-01T06:41:48.002Z,1.33
2022-09-01T06:44:14.705Z,1.35
2022-09-01T06:46:41.316Z,1.30
2022-09-01T06:49:11.459Z,1.48
2022-09-01T06:51:37.760Z,1.30
2022-09-01T06:54:07.125Z,1.58
2022-09-01T06:56:37.102Z,1.50
2022-09-01T06:59:15.449Z,1.52
2022-09-01T07:01:42.105Z,2.10
2022-09-01T07:04:12.910Z,2.53
2022-09-01T07:09:47.244Z,1.35
2022-09-01T07:12:29.419Z,1.48
2022-09-01T07:17:48.967Z,0.90
2022-09-01T07:20:30.970Z,1.17
2022-09-01T07:23:06.507Z,1.02
2022-09-01T07:25:48.427Z,1.50
2022-09-01T07:28:23.379Z,0.82
2022-09-01T07:36:26.865Z,1.20
2022-09-01T07:44:29.231Z,1.30
2022-09-01T07:52:31.349Z,1.42
2022-09-01T07:54:57.579Z,1.42
2022-09-01T07:57:23.938Z,1.30
2022-09-01T07:59:55.328Z,1.10
2022-09-01T08:02:21.906Z,1.35
2022-09-01T08:04:48.940Z,1.42
2022-09-01T08:07:16.180Z,1.50
2022-09-01T08:09:44.210Z,1.30
2022-09-01T08:12:11.050Z,1.13
2022-09-01T08:14:37.472Z,1.40
2022-09-01T08:19:53.319Z,1.20
2022-09-01T08:22:23.770Z,1.38
2022-09-01T08:24:50.112Z,1.30
2022-09-01T08:27:16.389Z,1.42
2022-09-01T08:29:43.219Z,1.42
2022-09-01T08:32:11.229Z,1.13
2022-09-01T08:34:37.561Z,1.27
2022-09-01T08:37:04.686Z,1.10
2022-09-01T08:39:31.008Z,1.30
2022-09-01T08:42:17.508Z,1.38
2022-09-01T08:44:54.425Z,1.30
2022-09-01T08:47:35.494Z,1.30
2022-09-01T08:50:06.362Z,1.25
2022-09-01T08:52:38.467Z,1.30
2022-09-01T08:55:16.033Z,1.00
2022-09-01T08:57:45.249Z,1.10
2022-09-01T09:00:13.739Z,1.25
2022-09-01T09:02:53.823Z,1.40
2022-09-01T09:05:43.276Z,1.33
2022-09-01T09:08:12.647Z,1.13
2022-09-01T09:10:43.607Z,1.08
2022-09-01T09:13:19.201Z,1.17
2022-09-01T09:16:09.010Z,1.40
2022-09-01T09:18:54.851Z,1.20
2022-09-01T09:21:27.027Z,1.08
2022-09-01T09:23:56.103Z,1.30
2022-09-01T09:26:22.502Z,1.23
2022-09-01T09:28:49.922Z,1.00
2022-09-01T09:31:50.496Z,1.40
2022-09-01T09:34:18.756Z,1.20
2022-09-01T09:36:52.350Z,0.90
2022-09-01T09:39:20.850Z,1.20
2022-09-01T09:42:07.629Z,1.10
2022-09-01T09:44:33.861Z,0.80
2022-09-01T09:47:00.604Z,0.90
2022-09-01T09:49:36.057Z,0.98
2022-09-01T09:52:09.712Z,0.98
2022-09-01T09:54:37.251Z,1.00
2022-09-01T09:57:09.578Z,1.00
2022-09-01T09:59:57.610Z,1.20
2022-09-01T10:02:36.436Z,1.13
2022-09-01T10:05:23.420Z,1.30
2022-09-01T10:07:49.908Z,1.00
2022-09-01T10:10:30.774Z,0.90
2022-09-01T10:12:57.965Z,1.20
2022-09-01T10:15:26.192Z,0.80
2022-09-01T10:18:19.649Z,1.00
2022-09-01T10:20:39.485Z,1.30
2022-09-01T10:23:05.863Z,0.98
2022-09-01T10:25:42.498Z,1.17
2022-09-01T10:28:20.925Z,1.00
2022-09-01T10:30:47.937Z,0.90
2022-09-01T10:33:20.105Z,1.02
2022-09-01T10:35:49.279Z,1.08
2022-09-01T10:38:26.680Z,1.00
2022-09-01T10:41:14.139Z,1.13
2022-09-01T10:43:42.746Z,0.82
2022-09-01T10:46:24.367Z,1.17
2022-09-01T10:48:55.638Z,1.20
2022-09-01T10:51:28.161Z,1.00
2022-09-01T10:54:01.849Z,1.40
2022-09-01T10:56:51.350Z,1.00
2022-09-01T10:59:38.619Z,1.10
2022-09-01T11:05:00.314Z,1.30
2022-09-01T11:07:58.194Z,1.30
2022-09-01T11:10:32.965Z,1.30
2022-09-01T11:13:08.038Z,1.20
2022-09-01T11:15:36.771Z,1.50
2022-09-01T11:18:07.765Z,1.30
2022-09-01T11:20:39.330Z,1.35
2022-09-01T11:23:19.921Z,1.40
2022-09-01T11:28:42.811Z,1.30
2022-09-01T11:31:09.318Z,1.30
2022-09-01T11:33:52.087Z,1.67
2022-09-01T11:36:18.678Z,1.60
2022-09-01T11:38:50.475Z,1.80
2022-09-01T11:41:22.178Z,1.88
2022-09-01T11:43:48.414Z,1.80
2022-09-01T11:46:22.207Z,1.60
2022-09-01T11:48:51.881Z,1.65
2022-09-01T11:51:18.789Z,1.77
2022-09-01T11:53:45.141Z,1.50
2022-09-01T11:56:14.553Z,1.63
2022-09-01T11:58:41.782Z,1.60
2022-09-01T12:01:34.511Z,2.03
2022-09-01T12:04:28.552Z,1.95
2022-09-01T12:06:59.471Z,2.10
2022-09-01T12:09:45.449Z,1.98
2022-09-01T12:12:27.066Z,2.00
2022-09-01T12:15:05.531Z,1.50
2022-09-01T12:17:33.194Z,2.00
2022-09-01T12:20:18.040Z,2.10
2022-09-01T12:22:44.321Z,1.75
2022-09-01T12:25:18.542Z,1.90
2022-09-01T12:27:45.128Z,2.03
2022-09-01T12:30:11.721Z,1.83
2022-09-01T12:32:38.589Z,1.60
2022-09-01T12:35:11.714Z,1.80
2022-09-01T12:37:38.587Z,2.20
2022-09-01T12:40:05.073Z,2.25
2022-09-01T12:42:40.766Z,2.20
2022-09-01T12:45:09.696Z,1.90
2022-09-01T12:47:36.116Z,2.10
2022-09-01T12:50:08.698Z,2.00
2022-09-01T12:52:35.800Z,1.90
2022-09-01T12:55:03.407Z,2.30
2022-09-01T12:57:38.004Z,1.95
2022-09-01T13:00:09.440Z,2.20
2022-09-01T13:02:37.753Z,2.20
2022-09-01T13:05:19.452Z,2.42
2022-09-01T13:07:45.694Z,2.00
2022-09-01T13:10:12.123Z,2.20
2022-09-01T13:12:45.087Z,2.03
2022-09-01T13:15:15.427Z,2.00
2022-09-01T13:17:41.944Z,2.40
2022-09-01T13:20:08.373Z,2.22
2022-09-01T13:22:35.228Z,2.40
2022-09-01T13:25:01.909Z,2.30
2022-09-01T13:27:28.488Z,1.98
2022-09-01T13:29:54.781Z,2.05
2022-09-01T13:32:22.465Z,2.20
2022-09-01T13:34:50.536Z,2.30
2022-09-01T13:37:17.165Z,2.83
2022-09-01T13:39:43.524Z,2.28
2022-09-01T13:42:10.428Z,2.30
2022-09-01T13:44:36.768Z,2.33
2022-09-01T13:50:07.839Z,2.22
2022-09-01T13:52:36.168Z,2.05
2022-09-01T13:55:02.431Z,2.50
2022-09-01T13:57:31.015Z,2.45
2022-09-01T14:00:03.926Z,2.70
2022-09-01T14:02:30.186Z,2.67
2022-09-01T14:04:56.496Z,2.30
2022-09-01T14:07:22.854Z,2.15
2022-09-01T14:09:49.287Z,2.53
2022-09-01T14:12:15.581Z,2.50
2022-09-01T14:17:28.090Z,2.30
2022-09-01T14:19:55.314Z,2.42
2022-09-01T14:22:21.796Z,2.22
2022-09-01T14:24:48.299Z,2.50
2022-09-01T14:27:14.622Z,2.20
2022-09-01T14:32:07.823Z,2.60
2022-09-01T14:34:35.015Z,2.55
2022-09-01T14:37:01.539Z,2.25
2022-09-01T14:39:28.573Z,2.50
2022-09-01T14:41:54.920Z,2.60
2022-09-01T14:44:21.133Z,2.72
2022-09-01T14:46:47.405Z,2.65
2022-09-01T14:49:19.023Z,2.25
2022-09-01T14:54:35.422Z,2.42
2022-09-01T14:59:48.820Z,2.45
2022-09-01T15:02:15.084Z,2.50
2022-09-01T15:04:42.371Z,2.67
2022-09-01T15:07:08.823Z,2.40
2022-09-01T15:09:35.371Z,2.47
2022-09-01T15:12:01.882Z,2.45
2022-09-01T15:14:28.141Z,2.50
2022-09-01T15:16:55.128Z,2.58
2022-09-01T15:19:21.374Z,2.67
2022-09-01T15:21:47.704Z,3.00
2022-09-01T15:24:14.035Z,3.05
2022-09-01T15:26:44.238Z,2.42
2022-09-01T15:29:11.828Z,2.40
2022-09-01T15:31:38.207Z,2.60
2022-09-01T15:34:04.687Z,2.92
2022-09-01T15:36:31.500Z,2.58
2022-09-01T15:38:58.196Z,2.70
2022-09-01T15:41:29.095Z,2.80
2022-09-01T15:43:56.358Z,2.70
2022-09-01T15:46:23.221Z,2.35
2022-09-01T15:48:50.385Z,2.50
2022-09-01T15:51:22.806Z,2.55
2022-09-01T15:53:49.752Z,2.30
2022-09-01T15:56:18.454Z,2.22
2022-09-01T15:59:01.081Z,2.30
2022-09-01T16:01:28.624Z,2.15
2022-09-01T16:03:55.652Z,2.22
2022-09-01T16:06:22.900Z,2.20
2022-09-01T16:08:49.914Z,2.08
2022-09-01T16:11:16.273Z,2.35
2022-09-01T16:13:42.857Z,2.20
2022-09-01T16:16:20.655Z,2.15
2022-09-01T16:18:52.252Z,2.40
2022-09-01T16:21:24.483Z,2.00
2022-09-01T16:23:51.826Z,2.10
2022-09-01T16:26:20.214Z,2.30
2022-09-01T16:28:51.701Z,2.35
2022-09-01T16:31:25.793Z,1.90
2022-09-01T16:33:55.842Z,2.13
2022-09-01T16:36:40.984Z,2.10
2022-09-01T16:39:13.001Z,2.50
2022-09-01T16:41:51.487Z,2.42
2022-09-01T16:44:25.536Z,2.33
2022-09-01T16:46:57.210Z,2.25
2022-09-01T16:49:32.163Z,2.65
2022-09-01T16:52:03.677Z,2.40
2022-09-01T16:54:32.921Z,2.30
2022-09-01T16:56:59.149Z,2.80
2022-09-01T16:59:33.452Z,2.22
2022-09-01T17:02:18.305Z,2.33
2022-09-01T17:04:49.538Z,2.47
2022-09-01T17:07:19.201Z,2.45
2022-09-01T17:09:50.953Z,2.58
2022-09-01T17:12:17.197Z,2.50
2022-09-01T17:14:49.357Z,2.30
2022-09-01T17:17:19.554Z,2.50
2022-09-01T17:19:51.948Z,2.47
2022-09-01T17:22:19.143Z,2.10
2022-09-01T17:24:48.724Z,2.25
2022-09-01T17:27:26.294Z,2.28
2022-09-01T17:29:53.739Z,2.40
2022-09-01T17:32:20.052Z,2.40
2022-09-01T17:34:55.364Z,2.72
2022-09-01T17:37:32.621Z,2.30
2022-09-01T17:40:17.973Z,2.40
2022-09-01T17:42:53.623Z,1.92
2022-09-01T17:45:29.219Z,1.88
2022-09-01T17:47:59.897Z,2.20
2022-09-01T17:50:39.229Z,2.10
2022-09-01T17:53:17.908Z,1.90
2022-09-01T17:56:01.704Z,2.30
2022-09-01T17:59:06.639Z,2.10
2022-09-01T18:01:51.524Z,2.20
2022-09-01T18:04:28.802Z,2.28
2022-09-01T18:07:01.441Z,2.20
2022-09-01T18:09:28.408Z,2.50
2022-09-01T18:12:09.631Z,2.25
2022-09-01T18:14:35.876Z,2.05
2022-09-01T18:17:04.366Z,2.15
2022-09-01T18:19:38.893Z,2.30
2022-09-01T18:22:08.352Z,2.08
2022-09-01T18:24:56.214Z,2.38
2022-09-01T18:27:24.191Z,2.30
2022-09-01T18:29:51.605Z,2.38
2022-09-01T18:32:20.981Z,2.25
2022-09-01T18:34:47.201Z,2.63
2022-09-01T18:37:24.798Z,2.70
2022-09-01T18:40:07.116Z,2.78
2022-09-01T18:42:39.408Z,2.30
2022-09-01T18:45:24.364Z,3.00
2022-09-01T18:48:09.300Z,2.92
2022-09-01T18:50:46.425Z,2.50
2022-09-01T18:53:15.713Z,2.58
2022-09-01T18:55:54.908Z,2.20
2022-09-01T18:58:21.183Z,2.80
2022-09-01T19:00:54.585Z,2.72
2022-09-01T19:03:27.512Z,2.50
2022-09-01T19:06:09.334Z,2.70
2022-09-01T19:08:41.931Z,2.85
2022-09-01T19:11:13.395Z,2.38
2022-09-01T19:13:39.777Z,2.72
2022-09-01T19:16:20.555Z,2.47
2022-09-01T19:18:52.763Z,2.60
2022-09-01T19:21:23.438Z,2.70
2022-09-01T19:24:02.101Z,2.97
2022-09-01T19:26:31.679Z,2.55
2022-09-01T19:29:00.249Z,2.75
2022-09-01T19:31:26.596Z,2.40
2022-09-01T19:34:15.090Z,2.55
2022-09-01T19:36:46.752Z,2.78
2022-09-01T19:39:14.947Z,2.60
2022-09-01T19:42:00.009Z,2.50
2022-09-01T19:44:36.964Z,2.63
2022-09-01T19:47:07.540Z,2.47
2022-09-01T19:49:33.807Z,2.40
2022-09-01T19:52:20.126Z,2.25
2022-09-01T19:54:52.670Z,2.00
2022-09-01T19:57:22.303Z,2.25
2022-09-01T20:00:08.886Z,2.30
2022-09-01T20:02:37.872Z,2.20
2022-09-01T20:05:07.568Z,2.50
2022-09-01T20:08:00.419Z,2.42
2022-09-01T20:10:37.512Z,2.33
2022-09-01T20:13:22.370Z,2.67
2022-09-01T20:15:54.084Z,2.17
2022-09-01T20:18:31.882Z,2.50
2022-09-01T20:21:02.254Z,2.40
2022-09-01T20:23:42.964Z,2.20
2022-09-01T20:26:25.339Z,2.43
2022-09-01T20:29:00.884Z,2.47
2022-09-01T20:31:33.169Z,2.45
2022-09-01T20:34:04.517Z,2.17
2022-09-01T20:39:19.016Z,2.22
2022-09-01T20:41:49.131Z,2.17
2022-09-01T20:44:25.909Z,2.10
2022-09-01T20:46:52.190Z,2.25
2022-09-01T20:49:18.452Z,2.28
2022-09-01T20:51:47.642Z,2.55
2022-09-01T20:54:19.750Z,2.15
2022-09-01T20:56:51.090Z,2.22
2022-09-01T20:59:33.960Z,2.25
2022-09-01T21:02:09.576Z,1.92
2022-09-01T21:04:38.871Z,2.00
2022-09-01T21:07:14.049Z,2.00
2022-09-01T21:10:03.013Z,2.08
2022-09-01T21:12:37.162Z,2.10
2022-09-01T21:15:19.828Z,2.10
2022-09-01T21:17:49.054Z,2.20
2022-09-01T21:20:26.206Z,2.00
2022-09-01T21:22:54.688Z,1.90
2022-09-01T21:25:21.052Z,2.00
2022-09-01T21:27:51.179Z,1.95
2022-09-01T21:30:18.145Z,2.30
2022-09-01T21:32:44.484Z,1.90
2022-09-01T21:35:12.700Z,2.00
2022-09-01T21:37:39.634Z,2.05
2022-09-01T21:40:06.679Z,1.92
2022-09-01T21:42:34.535Z,1.80
2022-09-01T21:45:01.822Z,1.90
2022-09-01T21:47:28.311Z,1.92
2022-09-01T21:49:55.220Z,2.05
2022-09-01T21:52:21.813Z,2.25
2022-09-01T21:54:48.446Z,1.83
2022-09-01T21:57:14.801Z,1.98
2022-09-01T21:59:41.372Z,2.10
2022-09-01T22:02:07.838Z,1.83
2022-09-01T22:04:34.888Z,1.83
2022-09-01T22:07:03.175Z,1.70
2022-09-01T22:09:30.091Z,1.77
2022-09-01T22:11:56.619Z,1.77
2022-09-01T22:14:22.865Z,1.95
2022-09-01T22:16:49.990Z,1.98
2022-09-01T22:19:16.310Z,1.70
2022-09-01T22:21:43.311Z,1.80
2022-09-01T22:24:10.086Z,1.60
2022-09-01T22:26:36.519Z,1.63
2022-09-01T22:29:04.369Z,2.08
2022-09-01T22:31:31.502Z,1.90
2022-09-01T22:33:58.651Z,1.50
2022-09-01T22:36:29.654Z,1.80
2022-09-01T22:38:57.926Z,2.00
2022-09-01T22:41:25.169Z,1.80
2022-09-01T22:43:51.528Z,1.75
2022-09-01T22:46:21.232Z,2.05
2022-09-01T22:48:48.862Z,1.50
2022-09-01T22:51:15.106Z,1.80
2022-09-01T22:53:42.155Z,2.08
2022-09-01T22:56:17.441Z,1.73
2022-09-01T22:58:43.718Z,1.80
2022-09-01T23:01:11.880Z,1.60
2022-09-01T23:03:38.466Z,1.65
2022-09-01T23:06:06.998Z,1.80
2022-09-01T23:08:33.663Z,1.70
2022-09-01T23:10:59.915Z,1.73
2022-09-01T23:13:28.144Z,1.50
2022-09-01T23:15:55.986Z,1.77
2022-09-01T23:18:22.842Z,1.50
2022-09-01T23:20:49.337Z,1.58
2022-09-01T23:23:15.668Z,1.55
2022-09-01T23:25:43.696Z,1.80
2022-09-01T23:28:11.243Z,1.90
2022-09-01T23:30:37.948Z,1.63
2022-09-01T23:33:04.598Z,1.50
2022-09-01T23:35:31.087Z,1.85
2022-09-01T23:37:57.968Z,1.60
2022-09-01T23:40:24.262Z,1.90
2022-09-01T23:42:50.630Z,1.70
2022-09-01T23:45:16.938Z,1.70
2022-09-01T23:47:43.186Z,1.63
2022-09-01T23:50:09.653Z,1.85
2022-09-01T23:52:36.355Z,1.70
2022-09-01T23:55:02.603Z,1.50
2022-09-01T23:57:28.885Z,1.40
2022-09-01T23:59:56.288Z,1.63
